createdAt,value
2022-09-07T00:04:45.660Z,85.3
2022-09-07T00:11:05.557Z,86.06
2022-09-07T00:17:28.558Z,86.25
2022-09-07T00:23:48.579Z,86.66
2022-09-07T00:30:11.576Z,86.16
2022-09-07T00:36:31.575Z,86.5
2022-09-07T00:42:54.575Z,87.26
2022-09-07T00:49:14.558Z,87.54
2022-09-07T00:55:37.580Z,87.35
2022-09-07T01:01:57.723Z,86.98
2022-09-07T01:08:20.582Z,87.73
2022-09-07T01:14:40.558Z,87.3
2022-09-07T01:21:03.597Z,87.48
2022-09-07T01:27:23.590Z,86.53
2022-09-07T01:33:46.558Z,87.01
2022-09-07T01:40:06.651Z,86.54
2022-09-07T01:46:29.649Z,86.52
2022-09-07T01:52:49.566Z,86.09
2022-09-07T01:59:12.564Z,86.02
2022-09-07T02:05:32.557Z,86.55
2022-09-07T02:11:55.576Z,86.42
2022-09-07T02:18:15.552Z,85.86
2022-09-07T02:24:38.583Z,85.85
2022-09-07T02:30:58.622Z,86.14
2022-09-07T02:37:21.562Z,85.99
2022-09-07T02:43:41.591Z,85.82
2022-09-07T02:50:04.561Z,85.53
2022-09-07T02:56:24.570Z,85.81
2022-09-07T03:02:47.681Z,85.5
2022-09-07T03:09:07.589Z,86.06
2022-09-07T03:15:30.626Z,85.8
2022-09-07T03:21:50.556Z,85.92
2022-09-07T03:28:13.604Z,85.53
2022-09-07T03:34:33.584Z,86.04
2022-09-07T03:40:56.562Z,85.42
2022-09-07T03:47:16.562Z,86.04
2022-09-07T03:53:39.578Z,86.25
2022-09-07T04:09:10.495Z,85.83
2022-09-07T04:15:30.558Z,85.64
2022-09-07T04:21:53.569Z,86.12
2022-09-07T04:28:13.595Z,85.91
2022-09-07T04:34:36.555Z,85.56
2022-09-07T04:40:56.567Z,86.32
2022-09-07T04:47:19.565Z,86.6
2022-09-07T04:53:39.558Z,86.24
2022-09-07T05:00:02.583Z,86.44
2022-09-07T05:06:22.558Z,86.25
2022-09-07T05:12:45.582Z,86.56
2022-09-07T05:19:05.554Z,86.62
2022-09-07T05:25:28.565Z,86.37
2022-09-07T05:31:48.605Z,86.76
2022-09-07T05:38:11.551Z,86.52
2022-09-07T05:44:47.109Z,85.67
2022-09-07T05:50:54.568Z,85.32
2022-09-07T05:57:14.579Z,85.12
2022-09-07T06:03:37.594Z,85.18
2022-09-07T06:16:20.661Z,84.75
2022-09-07T06:22:40.561Z,85.29
2022-09-07T06:29:03.563Z,85.2
2022-09-07T06:35:23.619Z,85.03
2022-09-07T06:42:02.072Z,85.24
2022-09-07T06:48:06.782Z,85.12
2022-09-07T07:00:49.636Z,85.51
2022-09-07T07:07:12.633Z,84.97
2022-09-07T07:13:32.548Z,84.58
2022-09-07T07:19:55.574Z,83.53
2022-09-07T07:26:15.563Z,83.35
2022-09-07T07:32:38.599Z,83.68
2022-09-07T07:38:59.900Z,82.49
2022-09-07T07:58:05.616Z,81.54
2022-09-07T08:04:25.593Z,81.97
2022-09-07T08:10:48.606Z,81.31
2022-09-07T08:17:08.597Z,79.14
2022-09-07T08:23:31.696Z,76.17
2022-09-07T08:29:51.561Z,74.56
2022-09-07T08:36:14.607Z,75.52
2022-09-07T08:42:34.591Z,73.44
2022-09-07T08:48:57.569Z,73.57
2022-09-07T08:55:17.609Z,73.58
2022-09-07T09:01:40.964Z,72.26
2022-09-07T09:08:00.567Z,71.78
2022-09-07T09:14:23.625Z,73.36
2022-09-07T09:20:43.562Z,72.01
2022-09-07T09:27:06.588Z,71.15
2022-09-07T09:33:26.589Z,71.25
2022-09-07T09:57:07.558Z,67.46
2022-09-07T10:09:50.602Z,65.46
2022-09-07T10:16:13.563Z,62.1
2022-09-07T10:22:33.575Z,61.62
2022-09-07T10:29:12.284Z,62.37
2022-09-07T10:35:16.566Z,63.61
2022-09-07T10:41:39.596Z,60.57
2022-09-07T10:47:59.581Z,59.98
2022-09-07T10:54:30.629Z,57.14
2022-09-07T11:00:42.561Z,57.56
2022-09-07T11:07:05.599Z,56.34
2022-09-07T11:13:25.571Z,57.04
2022-09-07T11:19:48.555Z,58.03
2022-09-07T11:26:08.621Z,56.7
2022-09-07T11:32:31.562Z,56.14
2022-09-07T11:38:51.580Z,53.27
2022-09-07T11:45:14.860Z,53.47
2022-09-07T11:51:34.568Z,52.95
2022-09-07T11:57:57.575Z,53.81
2022-09-07T12:04:17.713Z,53.68
2022-09-07T12:10:40.584Z,53.21
2022-09-07T12:17:00.558Z,52.92
2022-09-07T12:23:23.601Z,51.49
2022-09-07T12:29:45.834Z,52.74
2022-09-07T12:36:06.578Z,51.89
2022-09-07T12:42:34.288Z,52.54
2022-09-07T12:48:49.583Z,53.17
2022-09-07T12:55:27.007Z,53.01
2022-09-07T13:01:32.759Z,53.74
2022-09-07T13:07:55.794Z,51.01
2022-09-07T13:14:16.068Z,48.7
2022-09-07T13:20:39.766Z,50.41
2022-09-07T13:26:58.559Z,51.34
2022-09-07T13:33:18.582Z,50.9
2022-09-07T13:39:41.612Z,50.06
2022-09-07T13:46:01.709Z,51.47
2022-09-07T13:52:24.564Z,51.3
2022-09-07T13:58:44.587Z,48.92
2022-09-07T14:05:07.578Z,48.01
2022-09-07T14:11:27.564Z,47.21
2022-09-07T14:17:50.629Z,46
2022-09-07T14:24:10.575Z,47.11
2022-09-07T14:30:33.660Z,49.45
2022-09-07T14:36:53.608Z,47.43
2022-09-07T14:43:16.570Z,47.07
2022-09-07T14:49:36.575Z,47.28
2022-09-07T14:55:59.584Z,47.93
2022-09-07T15:02:19.741Z,46.14
2022-09-07T15:08:42.573Z,46.85
2022-09-07T15:15:02.596Z,46.22
2022-09-07T15:32:08.071Z,44.89
2022-09-07T15:44:50.194Z,43.49
2022-09-07T15:57:48.946Z,36.63
2022-09-07T16:03:52.701Z,36.94
2022-09-07T16:10:15.590Z,38.1
2022-09-07T16:23:14.862Z,39.31
2022-09-07T16:29:18.585Z,40.57
2022-09-07T16:35:41.580Z,42.1
2022-09-07T16:42:01.730Z,42.7
2022-09-07T16:48:24.593Z,44.01
2022-09-07T16:54:44.570Z,43.6
2022-09-07T17:01:07.628Z,43.94
2022-09-07T17:07:27.592Z,45.11
2022-09-07T17:13:50.640Z,45.51
2022-09-07T17:20:10.563Z,46.62
2022-09-07T17:26:33.601Z,49.26
2022-09-07T17:32:53.593Z,49.93
2022-09-07T17:39:17.951Z,52.25
2022-09-07T17:45:36.753Z,54.18
2022-09-07T17:51:59.553Z,55.39
2022-09-07T17:58:19.572Z,56.27
2022-09-07T18:04:42.720Z,58.16
2022-09-07T18:17:25.552Z,58.52
2022-09-07T18:23:45.578Z,60.5
2022-09-07T18:30:08.895Z,60.7
2022-09-07T18:36:29.081Z,60.58
2022-09-07T18:42:52.559Z,61.15
2022-09-07T18:49:11.554Z,61.27
2022-09-07T18:55:34.580Z,61.99
2022-09-07T19:01:56.701Z,62.81
2022-09-07T19:08:17.551Z,63.44
2022-09-07T19:14:37.665Z,63.57
2022-09-07T19:21:00.583Z,63.75
2022-09-07T19:27:20.577Z,64.72
2022-09-07T19:33:43.548Z,65.5
2022-09-07T19:40:03.885Z,66.71
2022-09-07T19:46:26.582Z,66.65
2022-09-07T19:52:46.804Z,66.94
2022-09-07T19:59:09.583Z,66.92
2022-09-07T20:05:29.576Z,66.43
2022-09-07T20:11:52.572Z,66.58
2022-09-07T20:18:12.570Z,66.8
2022-09-07T20:24:35.575Z,66.86
2022-09-07T20:30:55.553Z,66.56
2022-09-07T20:37:18.600Z,67.31
2022-09-07T20:43:38.565Z,68.5
2022-09-07T20:59:13.553Z,68.64
2022-09-07T21:05:33.566Z,68.79
2022-09-07T21:11:57.215Z,68.85
2022-09-07T21:18:16.609Z,69.56
2022-09-07T21:24:39.566Z,69.66
2022-09-07T21:30:59.609Z,70.04
2022-09-07T21:37:22.603Z,70.56
2022-09-07T21:43:42.555Z,70.73
2022-09-07T21:50:05.605Z,71.11
2022-09-07T21:56:25.587Z,71.15
2022-09-07T22:20:43.759Z,72.57
2022-09-07T22:27:03.592Z,73.03
2022-09-07T22:33:26.564Z,73.18
2022-09-07T22:39:46.767Z,73.89
2022-09-07T22:46:09.593Z,74.07
2022-09-07T22:52:29.560Z,74.03
2022-09-07T22:58:52.608Z,73.49
2022-09-07T23:05:12.608Z,73.64
2022-09-07T23:11:35.554Z,73.54
2022-09-07T23:17:55.591Z,73.68
2022-09-07T23:24:18.549Z,73.86
2022-09-07T23:30:38.585Z,74.2
2022-09-07T23:37:01.602Z,74.4
2022-09-07T23:43:21.571Z,74.64
2022-09-07T23:49:44.568Z,74.66
2022-09-07T23:56:04.575Z,75.08
